sensor_id;sensor_type;location;lat;lon;timestamp;temperature;humidity
65752;DHT22;52486;51.098;13.770;2023-04-24T00:01:59;25.70;73.90
65752;DHT22;52486;51.098;13.770;2023-04-24T00:04:26;25.50;73.60
65752;DHT22;52486;51.098;13.770;2023-04-24T00:06:52;23.70;72.60
65752;DHT22;52486;51.098;13.770;2023-04-24T00:09:23;24.80;73.10
65752;DHT22;52486;51.098;13.770;2023-04-24T00:14:14;24.80;73.30
65752;DHT22;52486;51.098;13.770;2023-04-24T00:16:40;24.20;73.30
65752;DHT22;52486;51.098;13.770;2023-04-24T00:19:06;25.60;74.00
65752;DHT22;52486;51.098;13.770;2023-04-24T00:21:32;23.80;72.90
65752;DHT22;52486;51.098;13.770;2023-04-24T00:23:58;24.90;73.80
65752;DHT22;52486;51.098;13.770;2023-04-24T00:28:50;24.80;74.00
65752;DHT22;52486;51.098;13.770;2023-04-24T00:31:15;24.10;73.60
65752;DHT22;52486;51.098;13.770;2023-04-24T00:36:07;24.10;72.70
65752;DHT22;52486;51.098;13.770;2023-04-24T00:38:33;23.10;73.70
65752;DHT22;52486;51.098;13.770;2023-04-24T00:40:58;23.20;74.00
65752;DHT22;52486;51.098;13.770;2023-04-24T00:43:25;25.60;75.30
65752;DHT22;52486;51.098;13.770;2023-04-24T00:45:51;24.30;72.70
65752;DHT22;52486;51.098;13.770;2023-04-24T00:48:16;23.50;74.50
65752;DHT22;52486;51.098;13.770;2023-04-24T00:50:43;24.50;65.70
65752;DHT22;52486;51.098;13.770;2023-04-24T00:53:08;23.60;75.00
65752;DHT22;52486;51.098;13.770;2023-04-24T00:55:34;24.80;76.10
65752;DHT22;52486;51.098;13.770;2023-04-24T00:58:02;24.50;76.00
65752;DHT22;52486;51.098;13.770;2023-04-24T01:00:29;24.20;66.70
65752;DHT22;52486;51.098;13.770;2023-04-24T01:02:55;24.30;67.00
65752;DHT22;52486;51.098;13.770;2023-04-24T01:05:23;24.40;67.50
65752;DHT22;52486;51.098;13.770;2023-04-24T01:07:48;25.90;79.10
65752;DHT22;52486;51.098;13.770;2023-04-24T01:10:15;24.40;68.40
65752;DHT22;52486;51.098;13.770;2023-04-24T01:12:41;23.80;78.80
65752;DHT22;52486;51.098;13.770;2023-04-24T01:15:07;24.30;69.20
65752;DHT22;52486;51.098;13.770;2023-04-24T01:17:33;24.30;68.20
65752;DHT22;52486;51.098;13.770;2023-04-24T01:20:00;24.30;69.70
65752;DHT22;52486;51.098;13.770;2023-04-24T01:22:26;24.30;69.70
65752;DHT22;52486;51.098;13.770;2023-04-24T01:24:53;24.40;70.10
65752;DHT22;52486;51.098;13.770;2023-04-24T01:27:19;24.40;70.10
65752;DHT22;52486;51.098;13.770;2023-04-24T01:29:46;24.50;70.30
65752;DHT22;52486;51.098;13.770;2023-04-24T01:32:12;24.40;70.30
65752;DHT22;52486;51.098;13.770;2023-04-24T01:34:39;24.50;70.80
65752;DHT22;52486;51.098;13.770;2023-04-24T01:37:05;24.40;70.70
65752;DHT22;52486;51.098;13.770;2023-04-24T01:39:31;24.60;71.20
65752;DHT22;52486;51.098;13.770;2023-04-24T01:41:58;24.30;70.80
65752;DHT22;52486;51.098;13.770;2023-04-24T01:44:25;24.10;71.00
65752;DHT22;52486;51.098;13.770;2023-04-24T01:46:51;24.20;71.10
65752;DHT22;52486;51.098;13.770;2023-04-24T01:49:19;24.50;71.40
65752;DHT22;52486;51.098;13.770;2023-04-24T01:51:45;24.50;71.70
65752;DHT22;52486;51.098;13.770;2023-04-24T01:54:12;24.50;71.70
65752;DHT22;52486;51.098;13.770;2023-04-24T01:56:41;24.40;71.80
65752;DHT22;52486;51.098;13.770;2023-04-24T01:59:10;24.50;71.90
65752;DHT22;52486;51.098;13.770;2023-04-24T02:01:37;24.30;71.70
65752;DHT22;52486;51.098;13.770;2023-04-24T02:04:07;24.10;71.70
65752;DHT22;52486;51.098;13.770;2023-04-24T02:06:33;24.10;71.60
65752;DHT22;52486;51.098;13.770;2023-04-24T02:08:59;24.20;71.70
65752;DHT22;52486;51.098;13.770;2023-04-24T02:11:25;24.50;71.90
65752;DHT22;52486;51.098;13.770;2023-04-24T02:13:51;24.30;72.60
65752;DHT22;52486;51.098;13.770;2023-04-24T02:16:17;23.60;81.50
65752;DHT22;52486;51.098;13.770;2023-04-24T02:18:43;24.30;71.90
65752;DHT22;52486;51.098;13.770;2023-04-24T02:21:09;24.10;71.60
65752;DHT22;52486;51.098;13.770;2023-04-24T02:23:34;24.40;71.90
65752;DHT22;52486;51.098;13.770;2023-04-24T02:26:00;24.10;71.90
65752;DHT22;52486;51.098;13.770;2023-04-24T02:28:26;24.30;72.10
65752;DHT22;52486;51.098;13.770;2023-04-24T02:30:51;24.60;72.40
65752;DHT22;52486;51.098;13.770;2023-04-24T02:33:17;24.20;72.30
65752;DHT22;52486;51.098;13.770;2023-04-24T02:35:43;24.50;72.60
65752;DHT22;52486;51.098;13.770;2023-04-24T02:38:08;24.50;72.80
65752;DHT22;52486;51.098;13.770;2023-04-24T02:40:34;24.30;72.90
65752;DHT22;52486;51.098;13.770;2023-04-24T02:43:00;24.40;73.10
65752;DHT22;52486;51.098;13.770;2023-04-24T02:45:25;24.30;73.30
65752;DHT22;52486;51.098;13.770;2023-04-24T02:47:51;24.40;73.40
65752;DHT22;52486;51.098;13.770;2023-04-24T02:50:17;24.30;73.40
65752;DHT22;52486;51.098;13.770;2023-04-24T02:52:42;24.10;73.20
65752;DHT22;52486;51.098;13.770;2023-04-24T02:55:08;24.40;73.60
65752;DHT22;52486;51.098;13.770;2023-04-24T02:57:34;24.30;73.60
65752;DHT22;52486;51.098;13.770;2023-04-24T02:59:59;24.40;73.80
65752;DHT22;52486;51.098;13.770;2023-04-24T03:02:25;24.30;73.80
65752;DHT22;52486;51.098;13.770;2023-04-24T03:04:51;24.40;74.10
65752;DHT22;52486;51.098;13.770;2023-04-24T03:07:16;24.50;74.20
65752;DHT22;52486;51.098;13.770;2023-04-24T03:09:42;24.30;74.20
65752;DHT22;52486;51.098;13.770;2023-04-24T03:12:08;24.40;74.20
65752;DHT22;52486;51.098;13.770;2023-04-24T03:14:33;24.30;74.20
65752;DHT22;52486;51.098;13.770;2023-04-24T03:17:00;24.50;74.20
65752;DHT22;52486;51.098;13.770;2023-04-24T03:19:25;24.10;74.30
65752;DHT22;52486;51.098;13.770;2023-04-24T03:21:51;24.30;74.60
65752;DHT22;52486;51.098;13.770;2023-04-24T03:24:17;24.10;74.40
65752;DHT22;52486;51.098;13.770;2023-04-24T03:26:42;24.30;74.60
65752;DHT22;52486;51.098;13.770;2023-04-24T03:29:08;24.30;74.70
65752;DHT22;52486;51.098;13.770;2023-04-24T03:31:34;24.30;74.90
65752;DHT22;52486;51.098;13.770;2023-04-24T03:33:59;24.20;74.80
65752;DHT22;52486;51.098;13.770;2023-04-24T03:36:25;24.50;75.10
65752;DHT22;52486;51.098;13.770;2023-04-24T03:38:51;24.10;74.60
65752;DHT22;52486;51.098;13.770;2023-04-24T03:41:17;24.20;75.00
65752;DHT22;52486;51.098;13.770;2023-04-24T03:43:42;24.10;75.20
65752;DHT22;52486;51.098;13.770;2023-04-24T03:46:08;24.10;75.20
65752;DHT22;52486;51.098;13.770;2023-04-24T03:48:35;24.30;75.20
65752;DHT22;52486;51.098;13.770;2023-04-24T03:51:01;24.20;75.30
65752;DHT22;52486;51.098;13.770;2023-04-24T03:53:27;24.40;75.30
65752;DHT22;52486;51.098;13.770;2023-04-24T03:55:53;24.20;75.60
65752;DHT22;52486;51.098;13.770;2023-04-24T03:58:19;24.10;75.80
65752;DHT22;52486;51.098;13.770;2023-04-24T04:00:44;24.20;76.00
65752;DHT22;52486;51.098;13.770;2023-04-24T04:03:12;24.30;76.00
65752;DHT22;52486;51.098;13.770;2023-04-24T04:05:39;24.20;76.10
65752;DHT22;52486;51.098;13.770;2023-04-24T04:08:05;24.30;76.30
65752;DHT22;52486;51.098;13.770;2023-04-24T04:10:30;24.00;76.30
65752;DHT22;52486;51.098;13.770;2023-04-24T04:12:56;24.20;76.40
65752;DHT22;52486;51.098;13.770;2023-04-24T04:15:21;24.20;76.50
65752;DHT22;52486;51.098;13.770;2023-04-24T04:17:47;24.10;76.40
65752;DHT22;52486;51.098;13.770;2023-04-24T04:20:13;24.40;76.60
65752;DHT22;52486;51.098;13.770;2023-04-24T04:22:39;24.10;76.40
65752;DHT22;52486;51.098;13.770;2023-04-24T04:25:05;24.10;76.50
65752;DHT22;52486;51.098;13.770;2023-04-24T04:27:30;24.10;77.30
65752;DHT22;52486;51.098;13.770;2023-04-24T04:29:59;24.10;76.60
65752;DHT22;52486;51.098;13.770;2023-04-24T04:32:33;24.30;76.80
65752;DHT22;52486;51.098;13.770;2023-04-24T04:35:00;24.10;74.70
65752;DHT22;52486;51.098;13.770;2023-04-24T04:37:34;24.20;76.80
65752;DHT22;52486;51.098;13.770;2023-04-24T04:40:01;24.20;77.50
65752;DHT22;52486;51.098;13.770;2023-04-24T04:42:28;24.20;77.40
65752;DHT22;52486;51.098;13.770;2023-04-24T04:44:53;24.30;77.80
65752;DHT22;52486;51.098;13.770;2023-04-24T04:47:21;24.10;77.50
65752;DHT22;52486;51.098;13.770;2023-04-24T04:49:50;24.10;77.80
65752;DHT22;52486;51.098;13.770;2023-04-24T04:52:19;24.10;77.80
65752;DHT22;52486;51.098;13.770;2023-04-24T04:54:45;23.90;78.10
65752;DHT22;52486;51.098;13.770;2023-04-24T04:57:11;24.60;78.60
65752;DHT22;52486;51.098;13.770;2023-04-24T04:59:37;24.10;78.70
65752;DHT22;52486;51.098;13.770;2023-04-24T05:02:03;24.30;79.90
65752;DHT22;52486;51.098;13.770;2023-04-24T05:04:29;24.40;79.50
65752;DHT22;52486;51.098;13.770;2023-04-24T07:30:51;25.00;79.90
65752;DHT22;52486;51.098;13.770;2023-04-24T07:33:19;25.10;81.30
65752;DHT22;52486;51.098;13.770;2023-04-24T07:35:44;25.30;80.80
65752;DHT22;52486;51.098;13.770;2023-04-24T07:38:10;25.20;79.90
65752;DHT22;52486;51.098;13.770;2023-04-24T07:40:36;25.10;78.00
65752;DHT22;52486;51.098;13.770;2023-04-24T07:43:02;25.30;77.10
65752;DHT22;52486;51.098;13.770;2023-04-24T07:45:28;25.10;74.80
65752;DHT22;52486;51.098;13.770;2023-04-24T07:47:53;25.30;74.60
65752;DHT22;52486;51.098;13.770;2023-04-24T07:50:19;25.40;73.30
65752;DHT22;52486;51.098;13.770;2023-04-24T07:52:46;25.20;74.40
65752;DHT22;52486;51.098;13.770;2023-04-24T07:55:12;25.60;73.70
65752;DHT22;52486;51.098;13.770;2023-04-24T07:57:38;25.50;73.80
65752;DHT22;52486;51.098;13.770;2023-04-24T08:00:04;25.40;73.80
65752;DHT22;52486;51.098;13.770;2023-04-24T08:02:32;25.60;73.90
65752;DHT22;52486;51.098;13.770;2023-04-24T08:04:57;25.80;75.90
65752;DHT22;52486;51.098;13.770;2023-04-24T08:07:23;25.60;74.00
65752;DHT22;52486;51.098;13.770;2023-04-24T08:09:49;25.80;73.30
65752;DHT22;52486;51.098;13.770;2023-04-24T08:12:15;25.90;71.70
65752;DHT22;52486;51.098;13.770;2023-04-24T09:01:11;26.00;67.30
65752;DHT22;52486;51.098;13.770;2023-04-24T09:06:04;26.20;55.30
65752;DHT22;52486;51.098;13.770;2023-04-24T09:08:32;26.50;56.20
65752;DHT22;52486;51.098;13.770;2023-04-24T09:10:58;25.60;66.80
65752;DHT22;52486;51.098;13.770;2023-04-24T09:13:27;27.00;68.00
65752;DHT22;52486;51.098;13.770;2023-04-24T09:15:53;27.30;66.00
65752;DHT22;52486;51.098;13.770;2023-04-24T09:18:19;25.80;66.80
65752;DHT22;52486;51.098;13.770;2023-04-24T09:21:01;27.20;67.70
65752;DHT22;52486;51.098;13.770;2023-04-24T09:23:31;25.40;65.50
65752;DHT22;52486;51.098;13.770;2023-04-24T09:25:58;26.70;58.00
65752;DHT22;52486;51.098;13.770;2023-04-24T09:28:34;25.70;65.30
65752;DHT22;52486;51.098;13.770;2023-04-24T09:31:14;25.40;65.20
65752;DHT22;52486;51.098;13.770;2023-04-24T09:36:32;26.20;66.90
65752;DHT22;52486;51.098;13.770;2023-04-24T09:39:02;27.40;60.00
65752;DHT22;52486;51.098;13.770;2023-04-24T09:43:56;25.80;65.80
65752;DHT22;52486;51.098;13.770;2023-04-24T09:46:29;26.80;56.90
65752;DHT22;52486;51.098;13.770;2023-04-24T09:48:56;27.00;66.90
65752;DHT22;52486;51.098;13.770;2023-04-24T09:51:36;26.60;67.00
65752;DHT22;52486;51.098;13.770;2023-04-24T09:54:23;27.00;68.00
65752;DHT22;52486;51.098;13.770;2023-04-24T09:59:18;26.70;58.00
65752;DHT22;52486;51.098;13.770;2023-04-24T10:01:45;26.20;68.90
65752;DHT22;52486;51.098;13.770;2023-04-24T10:04:19;26.40;68.40
65752;DHT22;52486;51.098;13.770;2023-04-24T10:06:46;27.00;69.80
65752;DHT22;52486;51.098;13.770;2023-04-24T10:11:42;27.40;69.30
65752;DHT22;52486;51.098;13.770;2023-04-24T10:14:10;27.20;60.00
65752;DHT22;52486;51.098;13.770;2023-04-24T10:16:39;28.00;70.00
65752;DHT22;52486;51.098;13.770;2023-04-24T10:19:07;27.70;69.10
65752;DHT22;52486;51.098;13.770;2023-04-24T10:21:34;27.40;73.50
65752;DHT22;52486;51.098;13.770;2023-04-24T10:24:00;27.30;72.30
65752;DHT22;52486;51.098;13.770;2023-04-24T10:26:29;27.20;71.70
65752;DHT22;52486;51.098;13.770;2023-04-24T10:28:57;27.10;71.20
65752;DHT22;52486;51.098;13.770;2023-04-24T10:31:24;27.00;71.60
65752;DHT22;52486;51.098;13.770;2023-04-24T10:33:51;26.90;71.40
65752;DHT22;52486;51.098;13.770;2023-04-24T10:36:18;27.00;71.50
65752;DHT22;52486;51.098;13.770;2023-04-24T10:38:45;27.40;71.70
65752;DHT22;52486;51.098;13.770;2023-04-24T10:41:13;27.00;71.60
65752;DHT22;52486;51.098;13.770;2023-04-24T10:43:45;27.20;71.80
65752;DHT22;52486;51.098;13.770;2023-04-24T10:46:18;27.10;71.20
65752;DHT22;52486;51.098;13.770;2023-04-24T10:48:55;27.30;71.50
65752;DHT22;52486;51.098;13.770;2023-04-24T10:51:23;27.30;69.20
65752;DHT22;52486;51.098;13.770;2023-04-24T10:53:51;27.10;71.00
65752;DHT22;52486;51.098;13.770;2023-04-24T10:56:18;27.20;71.80
65752;DHT22;52486;51.098;13.770;2023-04-24T10:58:44;27.20;71.10
65752;DHT22;52486;51.098;13.770;2023-04-24T11:01:28;27.30;70.80
65752;DHT22;52486;51.098;13.770;2023-04-24T11:03:58;27.20;71.20
65752;DHT22;52486;51.098;13.770;2023-04-24T11:06:36;27.40;71.20
65752;DHT22;52486;51.098;13.770;2023-04-24T11:09:07;27.40;71.40
65752;DHT22;52486;51.098;13.770;2023-04-24T11:11:35;27.30;71.00
65752;DHT22;52486;51.098;13.770;2023-04-24T11:14:03;27.20;70.70
65752;DHT22;52486;51.098;13.770;2023-04-24T11:16:35;27.30;70.60
65752;DHT22;52486;51.098;13.770;2023-04-24T11:24:29;27.40;67.50
65752;DHT22;52486;51.098;13.770;2023-04-24T11:27:16;27.30;69.10
65752;DHT22;52486;51.098;13.770;2023-04-24T11:29:46;27.10;68.50
65752;DHT22;52486;51.098;13.770;2023-04-24T11:32:29;27.20;68.70
65752;DHT22;52486;51.098;13.770;2023-04-24T11:35:39;27.20;66.80
65752;DHT22;52486;51.098;13.770;2023-04-24T11:37:51;27.20;67.10
65752;DHT22;52486;51.098;13.770;2023-04-24T11:40:18;27.40;70.50
65752;DHT22;52486;51.098;13.770;2023-04-24T11:42:47;27.20;70.00
65752;DHT22;52486;51.098;13.770;2023-04-24T11:45:30;27.20;70.00
65752;DHT22;52486;51.098;13.770;2023-04-24T11:47:56;27.50;69.60
65752;DHT22;52486;51.098;13.770;2023-04-24T11:50:23;27.20;70.00
65752;DHT22;52486;51.098;13.770;2023-04-24T11:57:50;26.50;59.70
65752;DHT22;52486;51.098;13.770;2023-04-24T12:00:18;26.40;69.80
65752;DHT22;52486;51.098;13.770;2023-04-24T12:02:44;26.30;69.40
65752;DHT22;52486;51.098;13.770;2023-04-24T12:05:26;27.20;70.00
65752;DHT22;52486;51.098;13.770;2023-04-24T12:07:53;27.40;70.00
65752;DHT22;52486;51.098;13.770;2023-04-24T12:10:26;26.00;70.00
65752;DHT22;52486;51.098;13.770;2023-04-24T12:12:53;26.50;68.50
65752;DHT22;52486;51.098;13.770;2023-04-24T12:15:20;26.70;59.10
65752;DHT22;52486;51.098;13.770;2023-04-24T12:17:46;26.80;71.10
65752;DHT22;52486;51.098;13.770;2023-04-24T12:25:18;26.00;78.00
65752;DHT22;52486;51.098;13.770;2023-04-24T12:30:18;25.40;74.30
65752;DHT22;52486;51.098;13.770;2023-04-24T12:32:48;25.20;67.40
65752;DHT22;52486;51.098;13.770;2023-04-24T12:35:18;25.50;68.00
65752;DHT22;52486;51.098;13.770;2023-04-24T12:37:45;25.00;67.60
65752;DHT22;52486;51.098;13.770;2023-04-24T12:40:12;24.80;69.20
65752;DHT22;52486;51.098;13.770;2023-04-24T12:42:46;25.10;57.10
65752;DHT22;52486;51.098;13.770;2023-04-24T12:45:12;24.60;56.50
65752;DHT22;52486;51.098;13.770;2023-04-24T12:47:39;25.00;68.20
65752;DHT22;52486;51.098;13.770;2023-04-24T12:50:07;24.70;66.90
65752;DHT22;52486;51.098;13.770;2023-04-24T12:55:00;24.70;55.00
65752;DHT22;52486;51.098;13.770;2023-04-24T12:57:27;24.60;55.40
65752;DHT22;52486;51.098;13.770;2023-04-24T12:59:55;24.60;55.10
65752;DHT22;52486;51.098;13.770;2023-04-24T13:02:26;24.20;65.60
65752;DHT22;52486;51.098;13.770;2023-04-24T13:04:52;25.00;54.50
65752;DHT22;52486;51.098;13.770;2023-04-24T13:07:18;25.40;64.60
65752;DHT22;52486;51.098;13.770;2023-04-24T13:09:44;23.50;64.00
65752;DHT22;52486;51.098;13.770;2023-04-24T13:12:11;23.40;64.00
65752;DHT22;52486;51.098;13.770;2023-04-24T13:14:37;25.40;64.80
65752;DHT22;52486;51.098;13.770;2023-04-24T13:19:34;25.70;65.30
65752;DHT22;52486;51.098;13.770;2023-04-24T13:26:53;24.40;67.40
65752;DHT22;52486;51.098;13.770;2023-04-24T13:29:19;24.00;64.10
65752;DHT22;52486;51.098;13.770;2023-04-24T13:31:46;26.20;68.90
65752;DHT22;52486;51.098;13.770;2023-04-24T13:34:13;24.90;67.90
65752;DHT22;52486;51.098;13.770;2023-04-24T13:36:39;25.70;59.00
65752;DHT22;52486;51.098;13.770;2023-04-24T13:51:17;26.00;76.80
65752;DHT22;52486;51.098;13.770;2023-04-24T13:53:43;26.40;71.70
65752;DHT22;52486;51.098;13.770;2023-04-24T13:56:09;26.40;71.10
65752;DHT22;52486;51.098;13.770;2023-04-24T13:58:35;25.70;70.50
65752;DHT22;52486;51.098;13.770;2023-04-24T14:01:05;26.80;70.90
65752;DHT22;52486;51.098;13.770;2023-04-24T14:03:33;26.50;69.10
65752;DHT22;52486;51.098;13.770;2023-04-24T14:05:59;26.90;70.90
65752;DHT22;52486;51.098;13.770;2023-04-24T14:08:25;27.10;70.70
65752;DHT22;52486;51.098;13.770;2023-04-24T14:10:50;27.30;75.50
65752;DHT22;52486;51.098;13.770;2023-04-24T14:25:27;26.70;66.10
65752;DHT22;52486;51.098;13.770;2023-04-24T14:27:52;27.70;57.10
65752;DHT22;52486;51.098;13.770;2023-04-24T14:40:03;25.90;68.70
65752;DHT22;52486;51.098;13.770;2023-04-24T14:42:30;26.00;68.80
65752;DHT22;52486;51.098;13.770;2023-04-24T14:57:08;25.00;76.00
65752;DHT22;52486;51.098;13.770;2023-04-24T15:06:54;24.50;76.00
65752;DHT22;52486;51.098;13.770;2023-04-24T15:09:24;24.60;74.90
65752;DHT22;52486;51.098;13.770;2023-04-24T15:14:17;23.00;75.00
65752;DHT22;52486;51.098;13.770;2023-04-24T15:19:10;24.10;64.00
65752;DHT22;52486;51.098;13.770;2023-04-24T15:24:04;23.40;67.10
65752;DHT22;52486;51.098;13.770;2023-04-24T15:26:30;24.10;58.60
65752;DHT22;52486;51.098;13.770;2023-04-24T15:28:56;26.10;68.30
65752;DHT22;52486;51.098;13.770;2023-04-24T15:31:22;24.10;67.20
65752;DHT22;52486;51.098;13.770;2023-04-24T15:33:49;24.20;67.60
65752;DHT22;52486;51.098;13.770;2023-04-24T15:36:15;23.90;67.70
65752;DHT22;52486;51.098;13.770;2023-04-24T15:38:42;24.20;57.70
65752;DHT22;52486;51.098;13.770;2023-04-24T15:43:34;23.60;68.00
65752;DHT22;52486;51.098;13.770;2023-04-24T15:48:30;24.40;68.80
65752;DHT22;52486;51.098;13.770;2023-04-24T15:53:22;24.50;62.20
65752;DHT22;52486;51.098;13.770;2023-04-24T15:55:49;23.40;65.20
65752;DHT22;52486;51.098;13.770;2023-04-24T15:58:14;22.70;69.00
65752;DHT22;52486;51.098;13.770;2023-04-24T16:00:40;22.70;65.60
65752;DHT22;52486;51.098;13.770;2023-04-24T16:03:06;23.10;70.10
65752;DHT22;52486;51.098;13.770;2023-04-24T16:07:58;22.40;69.20
65752;DHT22;52486;51.098;13.770;2023-04-24T16:10:24;22.80;69.30
65752;DHT22;52486;51.098;13.770;2023-04-24T16:17:44;24.60;69.00
65752;DHT22;52486;51.098;13.770;2023-04-24T16:20:10;23.80;60.00
65752;DHT22;52486;51.098;13.770;2023-04-24T16:22:37;23.40;67.80
65752;DHT22;52486;51.098;13.770;2023-04-24T16:25:04;25.30;68.60
65752;DHT22;52486;51.098;13.770;2023-04-24T16:27:30;23.10;67.50
65752;DHT22;52486;51.098;13.770;2023-04-24T16:29:56;25.10;68.60
65752;DHT22;52486;51.098;13.770;2023-04-24T16:32:22;23.00;67.60
65752;DHT22;52486;51.098;13.770;2023-04-24T16:34:47;24.20;68.40
65752;DHT22;52486;51.098;13.770;2023-04-24T16:37:13;23.30;68.00
65752;DHT22;52486;51.098;13.770;2023-04-24T16:39:39;23.00;67.90
65752;DHT22;52486;51.098;13.770;2023-04-24T16:44:35;23.10;67.60
65752;DHT22;52486;51.098;13.770;2023-04-24T16:51:57;23.00;67.00
65752;DHT22;52486;51.098;13.770;2023-04-24T16:54:23;23.60;67.30
65752;DHT22;52486;51.098;13.770;2023-04-24T16:56:50;23.60;67.20
65752;DHT22;52486;51.098;13.770;2023-04-24T17:04:07;22.70;67.00
65752;DHT22;52486;51.098;13.770;2023-04-24T17:06:33;23.90;67.10
65752;DHT22;52486;51.098;13.770;2023-04-24T17:11:26;22.90;67.30
65752;DHT22;52486;51.098;13.770;2023-04-24T17:13:52;23.20;67.80
65752;DHT22;52486;51.098;13.770;2023-04-24T17:16:17;23.00;67.60
65752;DHT22;52486;51.098;13.770;2023-04-24T17:18:43;23.10;67.50
65752;DHT22;52486;51.098;13.770;2023-04-24T17:23:35;22.60;67.50
65752;DHT22;52486;51.098;13.770;2023-04-24T17:26:00;23.00;67.10
65752;DHT22;52486;51.098;13.770;2023-04-24T17:28:30;23.30;67.20
65752;DHT22;52486;51.098;13.770;2023-04-24T17:30:57;22.90;67.50
65752;DHT22;52486;51.098;13.770;2023-04-24T17:33:24;23.60;57.50
65752;DHT22;52486;51.098;13.770;2023-04-24T17:35:50;23.00;60.30
65752;DHT22;52486;51.098;13.770;2023-04-24T17:38:17;23.00;67.80
65752;DHT22;52486;51.098;13.770;2023-04-24T17:40:43;23.70;68.10
65752;DHT22;52486;51.098;13.770;2023-04-24T17:43:11;24.20;68.20
65752;DHT22;52486;51.098;13.770;2023-04-24T17:48:03;23.80;68.00
65752;DHT22;52486;51.098;13.770;2023-04-24T17:50:29;22.50;67.80
65752;DHT22;52486;51.098;13.770;2023-04-24T18:00:13;22.70;69.20
65752;DHT22;52486;51.098;13.770;2023-04-24T18:02:39;24.00;70.20
65752;DHT22;52486;51.098;13.770;2023-04-24T18:05:04;23.20;69.90
65752;DHT22;52486;51.098;13.770;2023-04-24T18:14:48;23.60;71.20
65752;DHT22;52486;51.098;13.770;2023-04-24T18:17:14;21.60;70.90
65752;DHT22;52486;51.098;13.770;2023-04-24T18:19:40;22.00;70.90
65752;DHT22;52486;51.098;13.770;2023-04-24T18:22:05;21.40;71.10
65752;DHT22;52486;51.098;13.770;2023-04-24T18:26:57;23.40;72.10
65752;DHT22;52486;51.098;13.770;2023-04-24T18:29:24;20.60;71.60
65752;DHT22;52486;51.098;13.770;2023-04-24T18:34:15;22.80;72.10
65752;DHT22;52486;51.098;13.770;2023-04-24T18:36:41;21.90;70.80
65752;DHT22;52486;51.098;13.770;2023-04-24T18:41:33;22.80;71.10
65752;DHT22;52486;51.098;13.770;2023-04-24T18:43:59;23.80;71.70
65752;DHT22;52486;51.098;13.770;2023-04-24T18:46:25;22.80;71.80
65752;DHT22;52486;51.098;13.770;2023-04-24T18:53:43;22.40;70.50
65752;DHT22;52486;51.098;13.770;2023-04-24T18:58:35;24.10;72.60
65752;DHT22;52486;51.098;13.770;2023-04-24T19:01:00;24.10;72.60
65752;DHT22;52486;51.098;13.770;2023-04-24T19:03:26;23.30;72.60
65752;DHT22;52486;51.098;13.770;2023-04-24T19:05:54;23.40;73.10
65752;DHT22;52486;51.098;13.770;2023-04-24T19:08:19;23.50;73.80
65752;DHT22;52486;51.098;13.770;2023-04-24T19:10:45;21.70;73.70
65752;DHT22;52486;51.098;13.770;2023-04-24T19:13:10;21.40;76.30
65752;DHT22;52486;51.098;13.770;2023-04-24T19:20:30;20.80;80.20
65752;DHT22;52486;51.098;13.770;2023-04-24T19:22:56;22.00;64.60
65752;DHT22;52486;51.098;13.770;2023-04-24T19:25:22;22.30;73.50
65752;DHT22;52486;51.098;13.770;2023-04-24T19:27:47;20.80;72.50
65752;DHT22;52486;51.098;13.770;2023-04-24T19:30:13;21.00;72.10
65752;DHT22;52486;51.098;13.770;2023-04-24T19:32:40;20.60;71.40
65752;DHT22;52486;51.098;13.770;2023-04-24T19:37:32;21.00;71.00
65752;DHT22;52486;51.098;13.770;2023-04-24T19:39:58;21.40;70.90
65752;DHT22;52486;51.098;13.770;2023-04-24T19:42:24;21.20;71.40
65752;DHT22;52486;51.098;13.770;2023-04-24T19:44:50;23.40;72.10
65752;DHT22;52486;51.098;13.770;2023-04-24T19:47:16;22.30;72.20
65752;DHT22;52486;51.098;13.770;2023-04-24T19:49:41;21.30;73.40
65752;DHT22;52486;51.098;13.770;2023-04-24T19:52:07;22.50;64.60
65752;DHT22;52486;51.098;13.770;2023-04-24T19:54:32;22.60;74.00
65752;DHT22;52486;51.098;13.770;2023-04-24T19:59:25;22.70;81.40
65752;DHT22;52486;51.098;13.770;2023-04-24T20:01:50;23.10;75.90
65752;DHT22;52486;51.098;13.770;2023-04-24T20:18:58;23.00;79.00
